サンティアゴ の空港の天気 - METARとTAF

アルトゥーロ・メリノ・ベニテス国際空港(サンティアゴ) ( SCEL / SCL ) - チリ サンティアゴ
飛行場実況気象(Metar)
観測時間01/23 02:00 CLST (01/23 05:00 UTC)
風向・風速南南東 4m/s
視程10km以上
天気現象
なし
気温16℃
湿度82%
気圧1011hPa
METARSCEL 230500Z 16008KT CAVOK 16/13 Q1011 NOSIG
過去の天気等 Google飛行場航空写真 Wunderground天気予報

過去48時間のMETAR

飛行場予報(TAF)
発表時間: 1/23 01:17 CLST (1/23 04:17 UTC)
予報対象時間: 23日3時 CLST ~ 24日3時 CLST
風向・風速南南東 3m/s
視程10km以上
なし
23日4時 CLST ~ 23日10時 CLST に一時的に
風向・風速不定 2m/s
視程5,000m
天気現象煙霧
全天の4割程度の雲 雲底高度 240m
23日12時 CLST ~ 23日14時 CLST に徐々に
風向・風速南 6m/s
23日22時 CLST ~ 23日24時 CLST に徐々に
風向・風速南南東 3m/s
TAF SCEL 230417Z 2306/2406 16005KT CAVOK TX30/2319Z TN14/2310Z
TEMPO 2307/2313 VRB03KT 5000 HZ SCT008
BECMG 2315/2317 19011KT
BECMG 2401/2403 16005KT